sensor_id;sensor_type;location;lat;lon;timestamp;pressure;altitude;pressure_sealevel;temperature;humidity
28167;BME280;15455;53.376;-6.262;2023-05-29T00:02:09;102561.06;;;10.77;100.00
28167;BME280;15455;53.376;-6.262;2023-05-29T00:04:54;102557.56;;;10.78;100.00
28167;BME280;15455;53.376;-6.262;2023-05-29T00:07:40;102558.38;;;10.76;100.00
28167;BME280;15455;53.376;-6.262;2023-05-29T00:10:26;102555.66;;;10.71;100.00
28167;BME280;15455;53.376;-6.262;2023-05-29T00:13:11;102559.16;;;10.72;100.00
28167;BME280;15455;53.376;-6.262;2023-05-29T00:15:57;102563.41;;;10.68;100.00
28167;BME280;15455;53.376;-6.262;2023-05-29T00:18:42;102558.91;;;10.63;100.00
28167;BME280;15455;53.376;-6.262;2023-05-29T00:21:31;102559.66;;;10.58;100.00
28167;BME280;15455;53.376;-6.262;2023-05-29T00:24:17;102565.66;;;10.54;100.00
28167;BME280;15455;53.376;-6.262;2023-05-29T00:27:03;102571.59;;;10.49;100.00
28167;BME280;15455;53.376;-6.262;2023-05-29T00:29:48;102574.84;;;10.40;100.00
28167;BME280;15455;53.376;-6.262;2023-05-29T00:32:34;102576.47;;;10.36;100.00
28167;BME280;15455;53.376;-6.262;2023-05-29T00:35:20;102574.66;;;10.34;100.00
28167;BME280;15455;53.376;-6.262;2023-05-29T00:38:06;102572.69;;;10.26;100.00
28167;BME280;15455;53.376;-6.262;2023-05-29T00:40:51;102584.84;;;10.26;100.00
28167;BME280;15455;53.376;-6.262;2023-05-29T00:43:36;102577.81;;;10.23;100.00
28167;BME280;15455;53.376;-6.262;2023-05-29T00:46:22;102576.91;;;10.21;100.00
28167;BME280;15455;53.376;-6.262;2023-05-29T00:49:07;102584.66;;;10.18;100.00
28167;BME280;15455;53.376;-6.262;2023-05-29T00:51:53;102577.72;;;10.20;100.00
28167;BME280;15455;53.376;-6.262;2023-05-29T00:54:44;102584.72;;;10.21;100.00
28167;BME280;15455;53.376;-6.262;2023-05-29T00:57:33;102580.34;;;10.20;100.00
28167;BME280;15455;53.376;-6.262;2023-05-29T01:00:20;102594.25;;;10.21;100.00
28167;BME280;15455;53.376;-6.262;2023-05-29T01:03:06;102588.97;;;10.18;100.00
28167;BME280;15455;53.376;-6.262;2023-05-29T01:05:53;102593.25;;;10.16;100.00
28167;BME280;15455;53.376;-6.262;2023-05-29T01:08:40;102589.66;;;10.12;100.00
28167;BME280;15455;53.376;-6.262;2023-05-29T01:11:57;102595.63;;;10.08;100.00
28167;BME280;15455;53.376;-6.262;2023-05-29T01:23:52;102594.50;;;9.98;100.00
28167;BME280;15455;53.376;-6.262;2023-05-29T01:29:43;102590.03;;;9.94;100.00
28167;BME280;15455;53.376;-6.262;2023-05-29T01:32:29;102591.59;;;9.89;100.00
28167;BME280;15455;53.376;-6.262;2023-05-29T01:35:15;102586.25;;;9.84;100.00
28167;BME280;15455;53.376;-6.262;2023-05-29T01:38:01;102591.41;;;9.83;100.00
28167;BME280;15455;53.376;-6.262;2023-05-29T01:40:47;102591.50;;;9.86;100.00
28167;BME280;15455;53.376;-6.262;2023-05-29T01:43:33;102593.16;;;9.82;100.00
28167;BME280;15455;53.376;-6.262;2023-05-29T01:46:20;102592.19;;;9.80;100.00
28167;BME280;15455;53.376;-6.262;2023-05-29T01:49:08;102591.38;;;9.81;100.00
28167;BME280;15455;53.376;-6.262;2023-05-29T01:51:53;102594.75;;;9.79;100.00
28167;BME280;15455;53.376;-6.262;2023-05-29T01:54:39;102588.63;;;9.77;100.00
28167;BME280;15455;53.376;-6.262;2023-05-29T01:57:25;102591.97;;;9.72;100.00
28167;BME280;15455;53.376;-6.262;2023-05-29T02:00:12;102595.31;;;9.68;100.00
28167;BME280;15455;53.376;-6.262;2023-05-29T02:03:01;102591.63;;;9.62;100.00
28167;BME280;15455;53.376;-6.262;2023-05-29T02:05:48;102601.13;;;9.60;100.00
28167;BME280;15455;53.376;-6.262;2023-05-29T02:08:33;102603.75;;;9.60;100.00
28167;BME280;15455;53.376;-6.262;2023-05-29T02:11:19;102597.66;;;9.59;100.00
28167;BME280;15455;53.376;-6.262;2023-05-29T02:14:06;102595.81;;;9.56;100.00
28167;BME280;15455;53.376;-6.262;2023-05-29T02:16:51;102605.22;;;9.51;100.00
28167;BME280;15455;53.376;-6.262;2023-05-29T02:19:38;102608.56;;;9.47;100.00
28167;BME280;15455;53.376;-6.262;2023-05-29T02:22:23;102600.41;;;9.36;100.00
28167;BME280;15455;53.376;-6.262;2023-05-29T02:25:09;102598.63;;;9.35;100.00
28167;BME280;15455;53.376;-6.262;2023-05-29T02:27:54;102595.97;;;9.34;100.00
28167;BME280;15455;53.376;-6.262;2023-05-29T02:30:40;102604.41;;;9.27;100.00
28167;BME280;15455;53.376;-6.262;2023-05-29T02:33:27;102598.69;;;9.11;100.00
28167;BME280;15455;53.376;-6.262;2023-05-29T02:36:12;102599.16;;;8.99;100.00
28167;BME280;15455;53.376;-6.262;2023-05-29T02:38:57;102606.09;;;8.99;100.00
28167;BME280;15455;53.376;-6.262;2023-05-29T02:41:43;102601.47;;;8.90;100.00
28167;BME280;15455;53.376;-6.262;2023-05-29T02:44:28;102601.47;;;8.90;100.00
28167;BME280;15455;53.376;-6.262;2023-05-29T02:47:14;102602.41;;;8.92;100.00
28167;BME280;15455;53.376;-6.262;2023-05-29T02:50:00;102609.19;;;8.87;100.00
28167;BME280;15455;53.376;-6.262;2023-05-29T02:52:46;102598.31;;;8.75;100.00
28167;BME280;15455;53.376;-6.262;2023-05-29T02:55:31;102609.69;;;8.77;100.00
28167;BME280;15455;53.376;-6.262;2023-05-29T02:58:21;102609.09;;;8.84;100.00
28167;BME280;15455;53.376;-6.262;2023-05-29T03:01:07;102606.69;;;8.90;100.00
28167;BME280;15455;53.376;-6.262;2023-05-29T03:03:53;102611.88;;;8.90;100.00
28167;BME280;15455;53.376;-6.262;2023-05-29T03:06:38;102619.50;;;8.84;100.00
28167;BME280;15455;53.376;-6.262;2023-05-29T03:09:24;102610.63;;;8.79;100.00
28167;BME280;15455;53.376;-6.262;2023-05-29T03:12:09;102611.44;;;8.78;100.00
28167;BME280;15455;53.376;-6.262;2023-05-29T03:14:56;102609.63;;;8.75;100.00
28167;BME280;15455;53.376;-6.262;2023-05-29T03:17:49;102616.50;;;8.73;100.00
28167;BME280;15455;53.376;-6.262;2023-05-29T03:20:39;102614.78;;;8.74;100.00
28167;BME280;15455;53.376;-6.262;2023-05-29T03:23:25;102611.97;;;8.67;100.00
28167;BME280;15455;53.376;-6.262;2023-05-29T03:26:12;102623.94;;;8.62;100.00
28167;BME280;15455;53.376;-6.262;2023-05-29T03:29:00;102626.31;;;8.56;100.00
28167;BME280;15455;53.376;-6.262;2023-05-29T03:31:47;102618.03;;;8.44;100.00
28167;BME280;15455;53.376;-6.262;2023-05-29T03:34:38;102624.72;;;8.37;100.00
28167;BME280;15455;53.376;-6.262;2023-05-29T03:37:25;102616.53;;;8.26;100.00
28167;BME280;15455;53.376;-6.262;2023-05-29T03:40:11;102614.31;;;8.14;100.00
28167;BME280;15455;53.376;-6.262;2023-05-29T03:42:57;102610.63;;;8.08;100.00
28167;BME280;15455;53.376;-6.262;2023-05-29T03:45:43;102613.78;;;7.99;100.00
28167;BME280;15455;53.376;-6.262;2023-05-29T03:48:29;102623.78;;;7.90;100.00
28167;BME280;15455;53.376;-6.262;2023-05-29T03:51:15;102620.09;;;7.83;100.00
28167;BME280;15455;53.376;-6.262;2023-05-29T03:54:02;102616.94;;;7.69;100.00
28167;BME280;15455;53.376;-6.262;2023-05-29T03:56:48;102621.91;;;7.63;100.00
28167;BME280;15455;53.376;-6.262;2023-05-29T03:59:35;102626.50;;;7.70;100.00
28167;BME280;15455;53.376;-6.262;2023-05-29T04:02:22;102628.25;;;7.71;100.00
28167;BME280;15455;53.376;-6.262;2023-05-29T04:05:08;102635.41;;;7.77;100.00
28167;BME280;15455;53.376;-6.262;2023-05-29T04:07:55;102629.00;;;7.67;100.00
28167;BME280;15455;53.376;-6.262;2023-05-29T04:10:59;102625.31;;;7.62;100.00
28167;BME280;15455;53.376;-6.262;2023-05-29T04:13:47;102624.38;;;7.60;100.00
28167;BME280;15455;53.376;-6.262;2023-05-29T04:16:33;102622.16;;;7.48;100.00
28167;BME280;15455;53.376;-6.262;2023-05-29T04:19:19;102616.00;;;7.46;100.00
28167;BME280;15455;53.376;-6.262;2023-05-29T04:22:06;102629.25;;;7.52;100.00
28167;BME280;15455;53.376;-6.262;2023-05-29T04:24:51;102636.34;;;7.56;100.00
28167;BME280;15455;53.376;-6.262;2023-05-29T04:27:37;102640.66;;;7.56;100.00
28167;BME280;15455;53.376;-6.262;2023-05-29T04:30:26;102645.75;;;7.53;100.00
28167;BME280;15455;53.376;-6.262;2023-05-29T04:33:14;102644.84;;;7.52;100.00
28167;BME280;15455;53.376;-6.262;2023-05-29T04:36:06;102643.25;;;7.56;100.00
28167;BME280;15455;53.376;-6.262;2023-05-29T04:38:56;102639.56;;;7.51;100.00
28167;BME280;15455;53.376;-6.262;2023-05-29T04:41:43;102641.34;;;7.52;100.00
28167;BME280;15455;53.376;-6.262;2023-05-29T04:44:33;102646.56;;;7.52;100.00
28167;BME280;15455;53.376;-6.262;2023-05-29T04:47:19;102644.78;;;7.51;100.00
28167;BME280;15455;53.376;-6.262;2023-05-29T04:50:05;102647.38;;;7.51;100.00
28167;BME280;15455;53.376;-6.262;2023-05-29T04:52:51;102648.41;;;7.54;100.00
28167;BME280;15455;53.376;-6.262;2023-05-29T04:55:36;102654.66;;;7.59;100.00
28167;BME280;15455;53.376;-6.262;2023-05-29T04:58:25;102656.03;;;7.72;100.00
28167;BME280;15455;53.376;-6.262;2023-05-29T05:01:11;102656.53;;;7.85;100.00
28167;BME280;15455;53.376;-6.262;2023-05-29T05:04:00;102655.00;;;7.90;100.00
28167;BME280;15455;53.376;-6.262;2023-05-29T05:06:47;102658.66;;;7.95;100.00
28167;BME280;15455;53.376;-6.262;2023-05-29T05:09:32;102663.22;;;8.00;100.00
28167;BME280;15455;53.376;-6.262;2023-05-29T05:12:17;102658.19;;;8.05;100.00
28167;BME280;15455;53.376;-6.262;2023-05-29T05:15:03;102661.09;;;8.13;100.00
28167;BME280;15455;53.376;-6.262;2023-05-29T05:17:50;102666.59;;;8.21;100.00
28167;BME280;15455;53.376;-6.262;2023-05-29T05:20:36;102662.56;;;8.29;100.00
28167;BME280;15455;53.376;-6.262;2023-05-29T05:23:21;102667.31;;;8.39;100.00
28167;BME280;15455;53.376;-6.262;2023-05-29T05:26:07;102669.41;;;8.48;100.00
28167;BME280;15455;53.376;-6.262;2023-05-29T05:28:53;102673.19;;;8.58;100.00
28167;BME280;15455;53.376;-6.262;2023-05-29T05:31:40;102681.41;;;8.68;100.00
28167;BME280;15455;53.376;-6.262;2023-05-29T05:34:27;102694.56;;;8.96;100.00
28167;BME280;15455;53.376;-6.262;2023-05-29T05:37:12;102686.44;;;9.12;100.00
28167;BME280;15455;53.376;-6.262;2023-05-29T05:39:59;102694.75;;;9.26;100.00
28167;BME280;15455;53.376;-6.262;2023-05-29T05:42:47;102696.16;;;9.42;100.00
28167;BME280;15455;53.376;-6.262;2023-05-29T05:45:34;102702.66;;;9.55;100.00
28167;BME280;15455;53.376;-6.262;2023-05-29T05:48:21;102707.53;;;9.71;100.00
28167;BME280;15455;53.376;-6.262;2023-05-29T05:51:07;102704.66;;;9.89;100.00
28167;BME280;15455;53.376;-6.262;2023-05-29T05:53:53;102707.81;;;10.08;100.00
28167;BME280;15455;53.376;-6.262;2023-05-29T05:56:39;102710.06;;;10.24;100.00
28167;BME280;15455;53.376;-6.262;2023-05-29T05:59:27;102710.50;;;10.38;100.00
28167;BME280;15455;53.376;-6.262;2023-05-29T06:02:12;102710.06;;;10.52;100.00
28167;BME280;15455;53.376;-6.262;2023-05-29T06:04:58;102710.31;;;10.61;100.00
28167;BME280;15455;53.376;-6.262;2023-05-29T06:07:43;102706.25;;;10.71;100.00
28167;BME280;15455;53.376;-6.262;2023-05-29T06:10:29;102707.44;;;10.82;100.00
28167;BME280;15455;53.376;-6.262;2023-05-29T06:13:15;102711.19;;;10.92;100.00
28167;BME280;15455;53.376;-6.262;2023-05-29T06:16:07;102709.56;;;10.97;100.00
28167;BME280;15455;53.376;-6.262;2023-05-29T06:18:54;102706.28;;;11.04;100.00
28167;BME280;15455;53.376;-6.262;2023-05-29T06:21:40;102717.84;;;11.12;100.00
28167;BME280;15455;53.376;-6.262;2023-05-29T06:24:26;102717.25;;;11.23;100.00
28167;BME280;15455;53.376;-6.262;2023-05-29T06:27:13;102723.56;;;11.31;100.00
28167;BME280;15455;53.376;-6.262;2023-05-29T06:29:59;102715.91;;;11.39;100.00
28167;BME280;15455;53.376;-6.262;2023-05-29T06:32:46;102724.03;;;11.50;100.00
28167;BME280;15455;53.376;-6.262;2023-05-29T06:35:32;102718.16;;;11.58;100.00
28167;BME280;15455;53.376;-6.262;2023-05-29T06:38:18;102724.53;;;11.70;100.00
28167;BME280;15455;53.376;-6.262;2023-05-29T06:41:03;102726.50;;;11.80;100.00
28167;BME280;15455;53.376;-6.262;2023-05-29T06:43:51;102724.97;;;11.88;100.00
28167;BME280;15455;53.376;-6.262;2023-05-29T06:46:39;102721.75;;;11.98;100.00
28167;BME280;15455;53.376;-6.262;2023-05-29T06:49:25;102724.66;;;12.09;100.00
28167;BME280;15455;53.376;-6.262;2023-05-29T06:52:10;102734.53;;;12.23;100.00
28167;BME280;15455;53.376;-6.262;2023-05-29T06:55:25;102726.97;;;12.35;100.00
28167;BME280;15455;53.376;-6.262;2023-05-29T06:58:14;102731.53;;;12.44;100.00
28167;BME280;15455;53.376;-6.262;2023-05-29T07:01:00;102725.66;;;12.56;100.00
28167;BME280;15455;53.376;-6.262;2023-05-29T07:03:52;102729.38;;;12.65;100.00
28167;BME280;15455;53.376;-6.262;2023-05-29T07:06:37;102727.72;;;12.72;100.00
28167;BME280;15455;53.376;-6.262;2023-05-29T07:09:24;102728.81;;;12.82;100.00
28167;BME280;15455;53.376;-6.262;2023-05-29T07:12:11;102727.25;;;12.92;100.00
28167;BME280;15455;53.376;-6.262;2023-05-29T07:14:57;102731.84;;;13.02;100.00
28167;BME280;15455;53.376;-6.262;2023-05-29T07:17:42;102731.88;;;13.05;100.00
28167;BME280;15455;53.376;-6.262;2023-05-29T07:20:42;102724.16;;;13.13;100.00
28167;BME280;15455;53.376;-6.262;2023-05-29T07:23:31;102728.69;;;13.21;100.00
28167;BME280;15455;53.376;-6.262;2023-05-29T07:26:17;102727.06;;;13.28;100.00
28167;BME280;15455;53.376;-6.262;2023-05-29T07:29:03;102725.50;;;13.35;100.00
28167;BME280;15455;53.376;-6.262;2023-05-29T07:31:50;102725.63;;;13.43;100.00
28167;BME280;15455;53.376;-6.262;2023-05-29T07:34:38;102729.22;;;13.48;100.00
28167;BME280;15455;53.376;-6.262;2023-05-29T07:37:23;102731.06;;;13.53;100.00
28167;BME280;15455;53.376;-6.262;2023-05-29T07:40:10;102732.06;;;13.63;100.00
28167;BME280;15455;53.376;-6.262;2023-05-29T07:43:22;102736.56;;;13.70;100.00
28167;BME280;15455;53.376;-6.262;2023-05-29T07:46:13;102735.72;;;13.71;100.00
28167;BME280;15455;53.376;-6.262;2023-05-29T07:49:00;102747.22;;;13.78;100.00
28167;BME280;15455;53.376;-6.262;2023-05-29T07:51:46;102745.53;;;13.83;100.00
28167;BME280;15455;53.376;-6.262;2023-05-29T07:54:32;102747.34;;;13.87;100.00
28167;BME280;15455;53.376;-6.262;2023-05-29T07:57:20;102743.91;;;13.90;100.00
28167;BME280;15455;53.376;-6.262;2023-05-29T08:00:06;102749.16;;;13.92;100.00
28167;BME280;15455;53.376;-6.262;2023-05-29T08:03:03;102742.19;;;13.94;100.00
28167;BME280;15455;53.376;-6.262;2023-05-29T08:05:49;102746.59;;;13.95;100.00
28167;BME280;15455;53.376;-6.262;2023-05-29T08:08:37;102755.34;;;13.95;100.00
28167;BME280;15455;53.376;-6.262;2023-05-29T08:11:23;102755.31;;;13.94;100.00
28167;BME280;15455;53.376;-6.262;2023-05-29T08:14:09;102752.66;;;13.92;100.00
28167;BME280;15455;53.376;-6.262;2023-05-29T08:16:56;102751.84;;;13.96;100.00
28167;BME280;15455;53.376;-6.262;2023-05-29T08:19:42;102757.19;;;14.01;100.00
28167;BME280;15455;53.376;-6.262;2023-05-29T08:22:28;102756.44;;;14.10;100.00
28167;BME280;15455;53.376;-6.262;2023-05-29T08:25:15;102764.47;;;14.19;100.00
28167;BME280;15455;53.376;-6.262;2023-05-29T08:28:00;102763.69;;;14.24;100.00
28167;BME280;15455;53.376;-6.262;2023-05-29T08:30:46;102759.34;;;14.28;100.00
28167;BME280;15455;53.376;-6.262;2023-05-29T08:33:31;102759.41;;;14.33;100.00
28167;BME280;15455;53.376;-6.262;2023-05-29T08:36:17;102754.22;;;14.36;100.00
28167;BME280;15455;53.376;-6.262;2023-05-29T08:39:04;102756.91;;;14.42;100.00
28167;BME280;15455;53.376;-6.262;2023-05-29T08:44:47;102760.59;;;14.53;100.00
28167;BME280;15455;53.376;-6.262;2023-05-29T08:47:39;102758.00;;;14.56;100.00
28167;BME280;15455;53.376;-6.262;2023-05-29T08:50:29;102761.44;;;14.54;100.00
28167;BME280;15455;53.376;-6.262;2023-05-29T08:53:15;102756.19;;;14.54;100.00
28167;BME280;15455;53.376;-6.262;2023-05-29T08:56:01;102761.50;;;14.58;100.00
28167;BME280;15455;53.376;-6.262;2023-05-29T08:58:47;102761.66;;;14.66;100.00
28167;BME280;15455;53.376;-6.262;2023-05-29T09:01:34;102762.56;;;14.70;100.00
28167;BME280;15455;53.376;-6.262;2023-05-29T09:04:21;102753.81;;;14.69;100.00
28167;BME280;15455;53.376;-6.262;2023-05-29T09:07:06;102755.63;;;14.75;100.00
28167;BME280;15455;53.376;-6.262;2023-05-29T09:09:53;102753.94;;;14.82;100.00
28167;BME280;15455;53.376;-6.262;2023-05-29T09:12:39;102765.44;;;14.88;100.00
28167;BME280;15455;53.376;-6.262;2023-05-29T09:15:25;102759.38;;;14.96;100.00
28167;BME280;15455;53.376;-6.262;2023-05-29T09:18:10;102757.63;;;14.98;100.00
28167;BME280;15455;53.376;-6.262;2023-05-29T09:20:57;102758.53;;;14.98;100.00
28167;BME280;15455;53.376;-6.262;2023-05-29T09:23:52;102766.44;;;15.00;100.00
28167;BME280;15455;53.376;-6.262;2023-05-29T09:26:38;102776.94;;;14.97;100.00
28167;BME280;15455;53.376;-6.262;2023-05-29T09:29:23;102770.75;;;14.94;100.00
28167;BME280;15455;53.376;-6.262;2023-05-29T09:32:10;102765.50;;;14.96;100.00
28167;BME280;15455;53.376;-6.262;2023-05-29T09:35:00;102774.31;;;14.97;100.00
28167;BME280;15455;53.376;-6.262;2023-05-29T09:37:45;102761.19;;;15.00;100.00
28167;BME280;15455;53.376;-6.262;2023-05-29T09:40:34;102766.53;;;15.07;100.00
28167;BME280;15455;53.376;-6.262;2023-05-29T09:43:20;102769.25;;;15.15;100.00
28167;BME280;15455;53.376;-6.262;2023-05-29T09:46:15;102774.53;;;15.17;100.00
28167;BME280;15455;53.376;-6.262;2023-05-29T09:49:02;102768.38;;;15.16;100.00
28167;BME280;15455;53.376;-6.262;2023-05-29T09:51:53;102772.78;;;15.17;100.00
28167;BME280;15455;53.376;-6.262;2023-05-29T09:54:44;102776.31;;;15.21;100.00
28167;BME280;15455;53.376;-6.262;2023-05-29T09:57:33;102779.91;;;15.29;100.00
28167;BME280;15455;53.376;-6.262;2023-05-29T10:00:19;102772.06;;;15.34;100.00
28167;BME280;15455;53.376;-6.262;2023-05-29T10:03:05;102768.53;;;15.32;100.00
28167;BME280;15455;53.376;-6.262;2023-05-29T10:05:54;102771.16;;;15.28;100.00
28167;BME280;15455;53.376;-6.262;2023-05-29T10:08:46;102773.81;;;15.32;100.00
28167;BME280;15455;53.376;-6.262;2023-05-29T10:11:37;102765.09;;;15.36;100.00
28167;BME280;15455;53.376;-6.262;2023-05-29T10:14:25;102771.19;;;15.32;100.00
28167;BME280;15455;53.376;-6.262;2023-05-29T10:17:12;102783.47;;;15.31;100.00
28167;BME280;15455;53.376;-6.262;2023-05-29T10:20:01;102780.75;;;15.28;100.00
28167;BME280;15455;53.376;-6.262;2023-05-29T10:22:50;102773.81;;;15.32;100.00
28167;BME280;15455;53.376;-6.262;2023-05-29T10:25:37;102779.97;;;15.37;100.00
28167;BME280;15455;53.376;-6.262;2023-05-29T10:28:24;102764.28;;;15.44;100.00
28167;BME280;15455;53.376;-6.262;2023-05-29T10:31:16;102775.78;;;15.53;100.00
28167;BME280;15455;53.376;-6.262;2023-05-29T10:34:41;102766.16;;;15.59;100.00
28167;BME280;15455;53.376;-6.262;2023-05-29T10:37:37;102768.81;;;15.61;100.00
28167;BME280;15455;53.376;-6.262;2023-05-29T10:40:26;102770.59;;;15.63;100.00
28167;BME280;15455;53.376;-6.262;2023-05-29T10:43:31;102764.44;;;15.60;100.00
28167;BME280;15455;53.376;-6.262;2023-05-29T10:46:20;102767.94;;;15.62;100.00
28167;BME280;15455;53.376;-6.262;2023-05-29T10:49:15;102777.66;;;15.68;100.00
28167;BME280;15455;53.376;-6.262;2023-05-29T10:52:03;102783.81;;;15.73;100.00
28167;BME280;15455;53.376;-6.262;2023-05-29T10:54:51;102777.84;;;15.83;100.00
28167;BME280;15455;53.376;-6.262;2023-05-29T10:57:46;102783.16;;;15.89;100.00
28167;BME280;15455;53.376;-6.262;2023-05-29T11:00:32;102782.31;;;15.93;100.00
28167;BME280;15455;53.376;-6.262;2023-05-29T11:03:20;102778.88;;;16.04;100.00
28167;BME280;15455;53.376;-6.262;2023-05-29T11:06:17;102773.63;;;16.08;100.00
28167;BME280;15455;53.376;-6.262;2023-05-29T11:09:03;102778.03;;;16.12;100.00
28167;BME280;15455;53.376;-6.262;2023-05-29T11:15:11;102763.13;;;16.18;100.00
28167;BME280;15455;53.376;-6.262;2023-05-29T11:18:08;102776.34;;;16.21;100.00
28167;BME280;15455;53.376;-6.262;2023-05-29T11:21:00;102764.06;;;16.21;100.00
28167;BME280;15455;53.376;-6.262;2023-05-29T11:23:51;102768.44;;;16.19;100.00
28167;BME280;15455;53.376;-6.262;2023-05-29T11:26:40;102782.56;;;16.32;100.00
28167;BME280;15455;53.376;-6.262;2023-05-29T11:29:30;102775.56;;;16.34;100.00
28167;BME280;15455;53.376;-6.262;2023-05-29T11:32:16;102773.81;;;16.39;100.00
28167;BME280;15455;53.376;-6.262;2023-05-29T11:35:12;102782.72;;;16.61;100.00
28167;BME280;15455;53.376;-6.262;2023-05-29T11:38:01;102784.53;;;16.73;100.00
28167;BME280;15455;53.376;-6.262;2023-05-29T11:40:49;102778.53;;;16.94;100.00
28167;BME280;15455;53.376;-6.262;2023-05-29T11:43:35;102791.75;;;17.13;100.00
28167;BME280;15455;53.376;-6.262;2023-05-29T11:46:20;102792.66;;;17.29;100.00
28167;BME280;15455;53.376;-6.262;2023-05-29T11:49:06;102797.13;;;17.47;100.00
28167;BME280;15455;53.376;-6.262;2023-05-29T11:51:52;102808.56;;;17.61;100.00
28167;BME280;15455;53.376;-6.262;2023-05-29T11:54:46;102805.06;;;17.87;100.00
28167;BME280;15455;53.376;-6.262;2023-05-29T11:57:34;102809.50;;;18.07;100.00
28167;BME280;15455;53.376;-6.262;2023-05-29T12:00:20;102818.31;;;18.12;100.00
28167;BME280;15455;53.376;-6.262;2023-05-29T12:03:06;102819.16;;;18.29;100.00
28167;BME280;15455;53.376;-6.262;2023-05-29T12:05:52;102810.34;;;18.33;100.00
28167;BME280;15455;53.376;-6.262;2023-05-29T12:08:41;102817.38;;;18.47;100.00
28167;BME280;15455;53.376;-6.262;2023-05-29T12:11:26;102817.38;;;18.47;100.00
28167;BME280;15455;53.376;-6.262;2023-05-29T12:14:12;102815.59;;;18.44;100.00
28167;BME280;15455;53.376;-6.262;2023-05-29T12:16:57;102820.00;;;18.48;100.00
28167;BME280;15455;53.376;-6.262;2023-05-29T12:19:43;102820.91;;;18.52;100.00
28167;BME280;15455;53.376;-6.262;2023-05-29T12:22:36;102833.25;;;18.44;100.00
28167;BME280;15455;53.376;-6.262;2023-05-29T12:25:22;102821.81;;;18.32;100.00
28167;BME280;15455;53.376;-6.262;2023-05-29T12:28:08;102815.63;;;18.50;100.00
28167;BME280;15455;53.376;-6.262;2023-05-29T12:30:59;102819.94;;;18.74;100.00
28167;BME280;15455;53.376;-6.262;2023-05-29T12:33:44;102819.03;;;18.89;100.00
28167;BME280;15455;53.376;-6.262;2023-05-29T12:36:31;102812.75;;;19.12;100.00
28167;BME280;15455;53.376;-6.262;2023-05-29T12:39:17;102807.31;;;19.35;100.00
28167;BME280;15455;53.376;-6.262;2023-05-29T12:42:03;102808.16;;;19.43;100.00
28167;BME280;15455;53.376;-6.262;2023-05-29T12:44:49;102809.06;;;19.39;100.00
28167;BME280;15455;53.376;-6.262;2023-05-29T12:47:36;102805.59;;;19.26;100.00
28167;BME280;15455;53.376;-6.262;2023-05-29T12:50:26;102810.09;;;19.11;100.00
28167;BME280;15455;53.376;-6.262;2023-05-29T12:53:14;102811.91;;;19.08;100.00
28167;BME280;15455;53.376;-6.262;2023-05-29T12:56:00;102799.53;;;19.11;100.00
28167;BME280;15455;53.376;-6.262;2023-05-29T12:58:52;102805.63;;;19.23;100.00
28167;BME280;15455;53.376;-6.262;2023-05-29T13:01:38;102803.06;;;19.06;100.00
28167;BME280;15455;53.376;-6.262;2023-05-29T13:04:24;102804.78;;;19.21;100.00
28167;BME280;15455;53.376;-6.262;2023-05-29T13:07:09;102804.59;;;19.48;100.00
28167;BME280;15455;53.376;-6.262;2023-05-29T13:09:55;102806.38;;;19.47;100.00
28167;BME280;15455;53.376;-6.262;2023-05-29T13:12:41;102814.28;;;19.53;100.00
28167;BME280;15455;53.376;-6.262;2023-05-29T13:15:27;102809.81;;;19.57;100.00
28167;BME280;15455;53.376;-6.262;2023-05-29T13:18:13;102801.22;;;19.27;100.00
28167;BME280;15455;53.376;-6.262;2023-05-29T13:20:59;102805.66;;;19.19;100.00
28167;BME280;15455;53.376;-6.262;2023-05-29T13:23:45;102813.47;;;19.40;100.00
28167;BME280;15455;53.376;-6.262;2023-05-29T13:26:30;102796.63;;;19.52;100.00
28167;BME280;15455;53.376;-6.262;2023-05-29T13:29:16;102805.34;;;19.67;100.00
28167;BME280;15455;53.376;-6.262;2023-05-29T13:32:02;102797.38;;;19.70;100.00
28167;BME280;15455;53.376;-6.262;2023-05-29T13:34:48;102802.41;;;20.07;100.00
28167;BME280;15455;53.376;-6.262;2023-05-29T13:37:35;102805.81;;;20.20;100.00
28167;BME280;15455;53.376;-6.262;2023-05-29T13:40:21;102797.75;;;20.29;100.00
28167;BME280;15455;53.376;-6.262;2023-05-29T13:43:06;102801.31;;;20.25;100.00
28167;BME280;15455;53.376;-6.262;2023-05-29T13:45:52;102794.81;;;20.54;100.00
28167;BME280;15455;53.376;-6.262;2023-05-29T13:48:37;102790.06;;;20.85;100.00
28167;BME280;15455;53.376;-6.262;2023-05-29T13:51:23;102795.34;;;20.87;100.00
28167;BME280;15455;53.376;-6.262;2023-05-29T13:54:08;102787.44;;;20.84;100.00
28167;BME280;15455;53.376;-6.262;2023-05-29T13:56:54;102794.28;;;21.02;100.00
28167;BME280;15455;53.376;-6.262;2023-05-29T13:59:39;102791.44;;;21.14;100.00
28167;BME280;15455;53.376;-6.262;2023-05-29T14:02:25;102799.38;;;21.15;100.00
28167;BME280;15455;53.376;-6.262;2023-05-29T14:05:11;102802.81;;;21.24;100.00
28167;BME280;15455;53.376;-6.262;2023-05-29T14:07:56;102801.00;;;21.26;99.85
28167;BME280;15455;53.376;-6.262;2023-05-29T14:10:41;102810.00;;;21.17;100.00
28167;BME280;15455;53.376;-6.262;2023-05-29T14:13:27;102805.22;;;20.75;100.00
28167;BME280;15455;53.376;-6.262;2023-05-29T14:16:12;102815.75;;;20.83;100.00
28167;BME280;15455;53.376;-6.262;2023-05-29T14:19:00;102812.31;;;20.75;100.00
28167;BME280;15455;53.376;-6.262;2023-05-29T14:21:45;102810.31;;;20.92;100.00
28167;BME280;15455;53.376;-6.262;2023-05-29T14:24:31;102804.22;;;20.84;93.00
28167;BME280;15455;53.376;-6.262;2023-05-29T14:27:17;102797.91;;;20.93;97.82
28167;BME280;15455;53.376;-6.262;2023-05-29T14:30:05;102800.41;;;21.07;98.44
28167;BME280;15455;53.376;-6.262;2023-05-29T14:32:51;102797.59;;;21.17;100.00
28167;BME280;15455;53.376;-6.262;2023-05-29T14:35:37;102803.84;;;21.13;90.60